sensor_id;sensor_type;location;lat;lon;timestamp;temperature;humidity
50955;DHT22;36966;48.064;-0.792;2023-08-06T00:01:28;21.40;59.80
50955;DHT22;36966;48.064;-0.792;2023-08-06T00:03:47;21.40;59.70
50955;DHT22;36966;48.064;-0.792;2023-08-06T00:06:06;21.40;59.70
50955;DHT22;36966;48.064;-0.792;2023-08-06T00:08:26;21.50;59.70
50955;DHT22;36966;48.064;-0.792;2023-08-06T00:10:47;21.40;59.70
50955;DHT22;36966;48.064;-0.792;2023-08-06T00:13:06;21.40;59.80
50955;DHT22;36966;48.064;-0.792;2023-08-06T00:15:25;21.40;59.80
50955;DHT22;36966;48.064;-0.792;2023-08-06T00:17:45;21.40;59.80
50955;DHT22;36966;48.064;-0.792;2023-08-06T00:20:04;21.40;59.80
50955;DHT22;36966;48.064;-0.792;2023-08-06T00:22:25;21.40;59.70
50955;DHT22;36966;48.064;-0.792;2023-08-06T00:24:44;21.40;59.70
50955;DHT22;36966;48.064;-0.792;2023-08-06T00:27:03;21.40;59.70
50955;DHT22;36966;48.064;-0.792;2023-08-06T00:29:23;21.40;59.70
50955;DHT22;36966;48.064;-0.792;2023-08-06T00:31:42;21.40;59.70
50955;DHT22;36966;48.064;-0.792;2023-08-06T00:34:01;21.40;59.70
50955;DHT22;36966;48.064;-0.792;2023-08-06T00:36:20;21.40;59.70
50955;DHT22;36966;48.064;-0.792;2023-08-06T00:38:40;21.30;59.60
50955;DHT22;36966;48.064;-0.792;2023-08-06T00:40:59;21.40;59.70
50955;DHT22;36966;48.064;-0.792;2023-08-06T00:43:18;21.30;59.60
50955;DHT22;36966;48.064;-0.792;2023-08-06T00:45:38;21.30;59.70
50955;DHT22;36966;48.064;-0.792;2023-08-06T00:47:57;21.30;59.70
50955;DHT22;36966;48.064;-0.792;2023-08-06T00:50:16;21.40;59.60
50955;DHT22;36966;48.064;-0.792;2023-08-06T00:52:36;21.30;59.60
50955;DHT22;36966;48.064;-0.792;2023-08-06T00:54:55;21.40;59.70
50955;DHT22;36966;48.064;-0.792;2023-08-06T00:57:15;21.30;59.70
50955;DHT22;36966;48.064;-0.792;2023-08-06T00:59:34;21.30;59.70
50955;DHT22;36966;48.064;-0.792;2023-08-06T01:01:53;21.30;59.60
50955;DHT22;36966;48.064;-0.792;2023-08-06T01:04:12;21.30;59.60
50955;DHT22;36966;48.064;-0.792;2023-08-06T01:06:38;21.30;59.50
50955;DHT22;36966;48.064;-0.792;2023-08-06T01:09:01;21.30;59.60
50955;DHT22;36966;48.064;-0.792;2023-08-06T01:11:28;21.30;59.70
50955;DHT22;36966;48.064;-0.792;2023-08-06T01:13:53;21.30;59.60
50955;DHT22;36966;48.064;-0.792;2023-08-06T01:16:15;21.30;59.60
50955;DHT22;36966;48.064;-0.792;2023-08-06T01:18:34;21.30;59.50
50955;DHT22;36966;48.064;-0.792;2023-08-06T01:20:56;21.30;59.60
50955;DHT22;36966;48.064;-0.792;2023-08-06T01:23:15;21.30;59.60
50955;DHT22;36966;48.064;-0.792;2023-08-06T01:25:45;21.30;59.60
50955;DHT22;36966;48.064;-0.792;2023-08-06T01:28:18;21.30;59.60
50955;DHT22;36966;48.064;-0.792;2023-08-06T01:30:41;21.30;59.60
50955;DHT22;36966;48.064;-0.792;2023-08-06T01:33:03;21.30;59.60
50955;DHT22;36966;48.064;-0.792;2023-08-06T01:35:23;21.30;59.60
50955;DHT22;36966;48.064;-0.792;2023-08-06T01:37:43;21.30;59.50
50955;DHT22;36966;48.064;-0.792;2023-08-06T01:40:10;21.30;59.60
50955;DHT22;36966;48.064;-0.792;2023-08-06T01:42:30;21.30;59.60
50955;DHT22;36966;48.064;-0.792;2023-08-06T01:44:49;21.30;59.60
50955;DHT22;36966;48.064;-0.792;2023-08-06T01:47:08;21.30;59.60
50955;DHT22;36966;48.064;-0.792;2023-08-06T01:49:27;21.30;59.60
50955;DHT22;36966;48.064;-0.792;2023-08-06T01:51:47;21.20;59.60
50955;DHT22;36966;48.064;-0.792;2023-08-06T01:54:06;21.30;59.60
50955;DHT22;36966;48.064;-0.792;2023-08-06T01:56:25;21.30;59.60
50955;DHT22;36966;48.064;-0.792;2023-08-06T01:58:45;21.30;59.60
50955;DHT22;36966;48.064;-0.792;2023-08-06T02:01:04;21.20;59.60
50955;DHT22;36966;48.064;-0.792;2023-08-06T02:03:23;21.20;59.60
50955;DHT22;36966;48.064;-0.792;2023-08-06T02:05:43;21.30;59.70
50955;DHT22;36966;48.064;-0.792;2023-08-06T02:08:02;21.20;59.60
50955;DHT22;36966;48.064;-0.792;2023-08-06T02:10:21;21.20;59.70
50955;DHT22;36966;48.064;-0.792;2023-08-06T02:12:40;21.20;59.70
50955;DHT22;36966;48.064;-0.792;2023-08-06T02:14:59;21.20;59.60
50955;DHT22;36966;48.064;-0.792;2023-08-06T02:17:19;21.20;59.60
50955;DHT22;36966;48.064;-0.792;2023-08-06T02:19:38;21.20;59.50
50955;DHT22;36966;48.064;-0.792;2023-08-06T02:21:58;21.20;59.50
50955;DHT22;36966;48.064;-0.792;2023-08-06T02:24:17;21.20;59.50
50955;DHT22;36966;48.064;-0.792;2023-08-06T02:26:36;21.20;59.60
50955;DHT22;36966;48.064;-0.792;2023-08-06T02:28:55;21.20;59.50
50955;DHT22;36966;48.064;-0.792;2023-08-06T02:31:15;21.20;59.50
50955;DHT22;36966;48.064;-0.792;2023-08-06T02:33:34;21.20;59.40
50955;DHT22;36966;48.064;-0.792;2023-08-06T02:36:00;21.20;59.50
50955;DHT22;36966;48.064;-0.792;2023-08-06T02:38:20;21.20;59.50
50955;DHT22;36966;48.064;-0.792;2023-08-06T02:40:43;21.20;59.50
50955;DHT22;36966;48.064;-0.792;2023-08-06T02:43:02;21.20;59.50
50955;DHT22;36966;48.064;-0.792;2023-08-06T02:45:22;21.20;59.50
50955;DHT22;36966;48.064;-0.792;2023-08-06T02:47:41;21.20;59.50
50955;DHT22;36966;48.064;-0.792;2023-08-06T02:50:00;21.20;59.40
50955;DHT22;36966;48.064;-0.792;2023-08-06T02:52:19;21.20;59.40
50955;DHT22;36966;48.064;-0.792;2023-08-06T02:54:38;21.20;59.40
50955;DHT22;36966;48.064;-0.792;2023-08-06T02:56:57;21.20;59.40
50955;DHT22;36966;48.064;-0.792;2023-08-06T02:59:17;21.20;59.50
50955;DHT22;36966;48.064;-0.792;2023-08-06T03:01:36;21.20;59.40
50955;DHT22;36966;48.064;-0.792;2023-08-06T03:03:55;21.20;59.50
50955;DHT22;36966;48.064;-0.792;2023-08-06T03:06:15;21.20;59.40
50955;DHT22;36966;48.064;-0.792;2023-08-06T03:08:34;21.20;59.50
50955;DHT22;36966;48.064;-0.792;2023-08-06T03:10:53;21.20;59.40
50955;DHT22;36966;48.064;-0.792;2023-08-06T03:13:12;21.20;59.50
50955;DHT22;36966;48.064;-0.792;2023-08-06T03:15:31;21.20;59.50
50955;DHT22;36966;48.064;-0.792;2023-08-06T03:17:51;21.20;59.50
50955;DHT22;36966;48.064;-0.792;2023-08-06T03:20:10;21.20;59.50
50955;DHT22;36966;48.064;-0.792;2023-08-06T03:22:29;21.20;59.50
50955;DHT22;36966;48.064;-0.792;2023-08-06T03:24:52;21.20;59.50
50955;DHT22;36966;48.064;-0.792;2023-08-06T03:27:11;21.20;59.50
50955;DHT22;36966;48.064;-0.792;2023-08-06T03:29:30;21.20;59.50
50955;DHT22;36966;48.064;-0.792;2023-08-06T03:31:49;21.20;59.50
50955;DHT22;36966;48.064;-0.792;2023-08-06T03:34:10;21.20;59.60
50955;DHT22;36966;48.064;-0.792;2023-08-06T03:36:30;21.20;59.50
50955;DHT22;36966;48.064;-0.792;2023-08-06T03:38:49;21.20;59.50
50955;DHT22;36966;48.064;-0.792;2023-08-06T03:41:08;21.20;59.50
50955;DHT22;36966;48.064;-0.792;2023-08-06T03:43:27;21.20;59.60
50955;DHT22;36966;48.064;-0.792;2023-08-06T03:45:47;21.20;59.60
50955;DHT22;36966;48.064;-0.792;2023-08-06T03:48:06;21.10;59.50
50955;DHT22;36966;48.064;-0.792;2023-08-06T03:50:25;21.10;59.50
50955;DHT22;36966;48.064;-0.792;2023-08-06T03:52:44;21.10;59.50
50955;DHT22;36966;48.064;-0.792;2023-08-06T03:55:03;21.10;59.50
50955;DHT22;36966;48.064;-0.792;2023-08-06T03:57:23;21.10;59.50
50955;DHT22;36966;48.064;-0.792;2023-08-06T03:59:42;21.10;59.50
50955;DHT22;36966;48.064;-0.792;2023-08-06T04:02:01;21.10;59.50
50955;DHT22;36966;48.064;-0.792;2023-08-06T04:04:21;21.10;59.50
50955;DHT22;36966;48.064;-0.792;2023-08-06T04:06:40;21.10;59.50
50955;DHT22;36966;48.064;-0.792;2023-08-06T04:09:00;21.10;59.40
50955;DHT22;36966;48.064;-0.792;2023-08-06T04:11:19;21.10;59.50
50955;DHT22;36966;48.064;-0.792;2023-08-06T04:13:38;21.10;59.40
50955;DHT22;36966;48.064;-0.792;2023-08-06T04:16:03;21.20;59.40
50955;DHT22;36966;48.064;-0.792;2023-08-06T04:18:23;21.20;59.30
50955;DHT22;36966;48.064;-0.792;2023-08-06T04:20:46;21.10;59.20
50955;DHT22;36966;48.064;-0.792;2023-08-06T04:23:06;21.10;59.20
50955;DHT22;36966;48.064;-0.792;2023-08-06T04:25:25;21.10;59.20
50955;DHT22;36966;48.064;-0.792;2023-08-06T04:27:44;21.20;59.20
50955;DHT22;36966;48.064;-0.792;2023-08-06T04:30:04;21.20;59.20
50955;DHT22;36966;48.064;-0.792;2023-08-06T04:32:23;21.20;59.10
50955;DHT22;36966;48.064;-0.792;2023-08-06T04:34:43;21.20;59.10
50955;DHT22;36966;48.064;-0.792;2023-08-06T04:37:03;21.20;59.10
50955;DHT22;36966;48.064;-0.792;2023-08-06T04:39:22;21.20;59.00
50955;DHT22;36966;48.064;-0.792;2023-08-06T04:41:41;21.20;59.00
50955;DHT22;36966;48.064;-0.792;2023-08-06T04:44:01;21.20;59.00
50955;DHT22;36966;48.064;-0.792;2023-08-06T04:46:20;21.20;59.00
50955;DHT22;36966;48.064;-0.792;2023-08-06T04:48:39;21.20;58.90
50955;DHT22;36966;48.064;-0.792;2023-08-06T04:50:58;21.20;58.90
50955;DHT22;36966;48.064;-0.792;2023-08-06T04:53:18;21.20;58.90
50955;DHT22;36966;48.064;-0.792;2023-08-06T04:55:37;21.20;58.80
50955;DHT22;36966;48.064;-0.792;2023-08-06T04:57:56;21.20;58.90
50955;DHT22;36966;48.064;-0.792;2023-08-06T05:00:16;21.20;58.90
50955;DHT22;36966;48.064;-0.792;2023-08-06T05:02:35;21.20;58.90
50955;DHT22;36966;48.064;-0.792;2023-08-06T05:04:57;21.20;58.80
50955;DHT22;36966;48.064;-0.792;2023-08-06T05:07:16;21.20;58.80
50955;DHT22;36966;48.064;-0.792;2023-08-06T05:09:35;21.20;58.70
50955;DHT22;36966;48.064;-0.792;2023-08-06T05:11:54;21.20;58.80
50955;DHT22;36966;48.064;-0.792;2023-08-06T05:14:14;21.20;58.70
50955;DHT22;36966;48.064;-0.792;2023-08-06T05:16:33;21.20;58.60
50955;DHT22;36966;48.064;-0.792;2023-08-06T05:18:52;21.20;58.50
50955;DHT22;36966;48.064;-0.792;2023-08-06T05:21:11;21.20;58.30
50955;DHT22;36966;48.064;-0.792;2023-08-06T05:23:31;21.30;58.20
50955;DHT22;36966;48.064;-0.792;2023-08-06T05:25:50;21.30;58.20
50955;DHT22;36966;48.064;-0.792;2023-08-06T05:28:09;21.30;58.10
50955;DHT22;36966;48.064;-0.792;2023-08-06T05:30:29;21.30;58.10
50955;DHT22;36966;48.064;-0.792;2023-08-06T05:32:48;21.30;58.10
50955;DHT22;36966;48.064;-0.792;2023-08-06T05:35:07;21.30;58.00
50955;DHT22;36966;48.064;-0.792;2023-08-06T05:37:27;21.30;58.00
50955;DHT22;36966;48.064;-0.792;2023-08-06T05:39:46;21.30;58.00
50955;DHT22;36966;48.064;-0.792;2023-08-06T05:42:05;21.30;58.00
50955;DHT22;36966;48.064;-0.792;2023-08-06T05:44:24;21.30;57.90
50955;DHT22;36966;48.064;-0.792;2023-08-06T05:46:43;21.30;57.90
50955;DHT22;36966;48.064;-0.792;2023-08-06T05:49:02;21.30;57.90
50955;DHT22;36966;48.064;-0.792;2023-08-06T05:51:22;21.30;57.90
50955;DHT22;36966;48.064;-0.792;2023-08-06T05:53:41;21.30;57.90
50955;DHT22;36966;48.064;-0.792;2023-08-06T05:56:01;21.30;58.00
50955;DHT22;36966;48.064;-0.792;2023-08-06T05:58:20;21.30;57.90
50955;DHT22;36966;48.064;-0.792;2023-08-06T06:00:39;21.30;57.90
50955;DHT22;36966;48.064;-0.792;2023-08-06T06:02:59;21.40;57.90
50955;DHT22;36966;48.064;-0.792;2023-08-06T06:05:18;21.30;57.90
50955;DHT22;36966;48.064;-0.792;2023-08-06T06:07:37;21.30;57.90
50955;DHT22;36966;48.064;-0.792;2023-08-06T06:09:56;21.30;57.90
50955;DHT22;36966;48.064;-0.792;2023-08-06T06:12:15;21.30;57.60
50955;DHT22;36966;48.064;-0.792;2023-08-06T06:14:35;21.20;58.00
50955;DHT22;36966;48.064;-0.792;2023-08-06T06:16:54;21.20;57.90
50955;DHT22;36966;48.064;-0.792;2023-08-06T06:19:13;21.30;57.70
50955;DHT22;36966;48.064;-0.792;2023-08-06T06:21:32;21.30;57.60
50955;DHT22;36966;48.064;-0.792;2023-08-06T06:23:52;21.30;57.50
50955;DHT22;36966;48.064;-0.792;2023-08-06T06:26:12;21.30;57.50
50955;DHT22;36966;48.064;-0.792;2023-08-06T06:28:31;21.30;57.60
50955;DHT22;36966;48.064;-0.792;2023-08-06T06:30:51;21.30;57.60
50955;DHT22;36966;48.064;-0.792;2023-08-06T06:33:10;21.30;57.60
50955;DHT22;36966;48.064;-0.792;2023-08-06T06:35:30;21.30;57.60
50955;DHT22;36966;48.064;-0.792;2023-08-06T06:37:49;21.40;57.60
50955;DHT22;36966;48.064;-0.792;2023-08-06T06:40:08;21.40;57.60
50955;DHT22;36966;48.064;-0.792;2023-08-06T06:42:27;21.50;57.50
50955;DHT22;36966;48.064;-0.792;2023-08-06T06:44:46;21.50;57.60
50955;DHT22;36966;48.064;-0.792;2023-08-06T06:47:06;21.40;57.60
50955;DHT22;36966;48.064;-0.792;2023-08-06T06:49:25;21.50;57.60
50955;DHT22;36966;48.064;-0.792;2023-08-06T06:51:44;21.50;57.70
50955;DHT22;36966;48.064;-0.792;2023-08-06T06:54:04;21.50;57.80
50955;DHT22;36966;48.064;-0.792;2023-08-06T06:56:23;21.50;57.70
50955;DHT22;36966;48.064;-0.792;2023-08-06T06:58:42;21.50;57.80
50955;DHT22;36966;48.064;-0.792;2023-08-06T07:01:01;21.50;57.80
50955;DHT22;36966;48.064;-0.792;2023-08-06T07:03:21;21.50;57.80
50955;DHT22;36966;48.064;-0.792;2023-08-06T07:05:40;21.50;57.70
50955;DHT22;36966;48.064;-0.792;2023-08-06T07:07:59;21.60;57.70
50955;DHT22;36966;48.064;-0.792;2023-08-06T07:10:18;21.60;57.60
50955;DHT22;36966;48.064;-0.792;2023-08-06T07:12:38;21.70;57.50
50955;DHT22;36966;48.064;-0.792;2023-08-06T07:14:57;21.70;57.50
50955;DHT22;36966;48.064;-0.792;2023-08-06T07:17:16;21.70;57.60
50955;DHT22;36966;48.064;-0.792;2023-08-06T07:19:36;21.70;57.60
50955;DHT22;36966;48.064;-0.792;2023-08-06T07:21:55;21.70;57.50
50955;DHT22;36966;48.064;-0.792;2023-08-06T07:24:15;21.80;57.30
50955;DHT22;36966;48.064;-0.792;2023-08-06T07:26:34;21.80;57.20
50955;DHT22;36966;48.064;-0.792;2023-08-06T07:28:54;21.80;57.10
50955;DHT22;36966;48.064;-0.792;2023-08-06T07:31:13;21.80;57.20
50955;DHT22;36966;48.064;-0.792;2023-08-06T07:33:32;21.80;57.00
50955;DHT22;36966;48.064;-0.792;2023-08-06T07:35:51;21.90;56.90
50955;DHT22;36966;48.064;-0.792;2023-08-06T07:38:10;21.90;57.00
50955;DHT22;36966;48.064;-0.792;2023-08-06T07:40:30;21.80;56.80
50955;DHT22;36966;48.064;-0.792;2023-08-06T07:42:49;21.90;56.80
50955;DHT22;36966;48.064;-0.792;2023-08-06T07:45:09;21.90;56.90
50955;DHT22;36966;48.064;-0.792;2023-08-06T07:47:28;22.00;56.80
50955;DHT22;36966;48.064;-0.792;2023-08-06T07:49:47;21.90;56.80
50955;DHT22;36966;48.064;-0.792;2023-08-06T07:52:07;21.90;56.70
50955;DHT22;36966;48.064;-0.792;2023-08-06T07:54:26;22.00;56.70
50955;DHT22;36966;48.064;-0.792;2023-08-06T07:56:45;22.00;56.70
50955;DHT22;36966;48.064;-0.792;2023-08-06T07:59:04;22.00;56.70
50955;DHT22;36966;48.064;-0.792;2023-08-06T08:01:24;22.00;56.50
50955;DHT22;36966;48.064;-0.792;2023-08-06T08:03:43;22.10;56.50
50955;DHT22;36966;48.064;-0.792;2023-08-06T08:06:02;22.10;56.50
50955;DHT22;36966;48.064;-0.792;2023-08-06T08:08:21;22.20;56.20
50955;DHT22;36966;48.064;-0.792;2023-08-06T08:10:41;22.20;56.00
50955;DHT22;36966;48.064;-0.792;2023-08-06T08:13:02;22.10;55.80
50955;DHT22;36966;48.064;-0.792;2023-08-06T08:15:21;22.20;55.90
50955;DHT22;36966;48.064;-0.792;2023-08-06T08:17:40;22.20;55.90
50955;DHT22;36966;48.064;-0.792;2023-08-06T08:19:59;22.20;55.90
50955;DHT22;36966;48.064;-0.792;2023-08-06T08:22:19;22.20;55.80
50955;DHT22;36966;48.064;-0.792;2023-08-06T08:24:38;22.30;55.50
50955;DHT22;36966;48.064;-0.792;2023-08-06T08:26:57;22.30;55.20
50955;DHT22;36966;48.064;-0.792;2023-08-06T08:29:16;22.30;55.10
50955;DHT22;36966;48.064;-0.792;2023-08-06T08:31:35;22.30;55.20
50955;DHT22;36966;48.064;-0.792;2023-08-06T08:33:58;22.30;55.20
50955;DHT22;36966;48.064;-0.792;2023-08-06T08:36:17;22.30;55.10
50955;DHT22;36966;48.064;-0.792;2023-08-06T08:38:37;22.40;55.10
50955;DHT22;36966;48.064;-0.792;2023-08-06T08:40:56;22.40;55.20
50955;DHT22;36966;48.064;-0.792;2023-08-06T08:43:15;22.30;55.20
50955;DHT22;36966;48.064;-0.792;2023-08-06T08:45:35;22.40;55.10
50955;DHT22;36966;48.064;-0.792;2023-08-06T08:47:58;22.40;55.10
50955;DHT22;36966;48.064;-0.792;2023-08-06T08:50:22;22.40;55.00
50955;DHT22;36966;48.064;-0.792;2023-08-06T08:52:41;22.40;54.90
50955;DHT22;36966;48.064;-0.792;2023-08-06T08:55:04;22.40;54.90
50955;DHT22;36966;48.064;-0.792;2023-08-06T08:57:24;22.40;54.40
50955;DHT22;36966;48.064;-0.792;2023-08-06T08:59:43;22.40;54.00
50955;DHT22;36966;48.064;-0.792;2023-08-06T09:02:02;22.40;53.90
50955;DHT22;36966;48.064;-0.792;2023-08-06T09:04:22;22.40;54.10
50955;DHT22;36966;48.064;-0.792;2023-08-06T09:06:42;22.40;54.40
50955;DHT22;36966;48.064;-0.792;2023-08-06T09:09:06;22.40;54.20
50955;DHT22;36966;48.064;-0.792;2023-08-06T09:11:26;22.40;54.40
50955;DHT22;36966;48.064;-0.792;2023-08-06T09:13:46;22.40;54.50
50955;DHT22;36966;48.064;-0.792;2023-08-06T09:16:06;22.50;54.30
50955;DHT22;36966;48.064;-0.792;2023-08-06T09:18:26;22.50;54.30
50955;DHT22;36966;48.064;-0.792;2023-08-06T09:20:48;22.60;54.30
50955;DHT22;36966;48.064;-0.792;2023-08-06T09:23:10;22.60;54.10
50955;DHT22;36966;48.064;-0.792;2023-08-06T09:25:30;22.60;53.90
50955;DHT22;36966;48.064;-0.792;2023-08-06T09:27:50;22.70;53.80
50955;DHT22;36966;48.064;-0.792;2023-08-06T09:30:10;22.70;53.80
50955;DHT22;36966;48.064;-0.792;2023-08-06T09:33:03;22.70;53.70
50955;DHT22;36966;48.064;-0.792;2023-08-06T09:35:16;22.70;53.80
50955;DHT22;36966;48.064;-0.792;2023-08-06T09:37:35;22.70;53.70
50955;DHT22;36966;48.064;-0.792;2023-08-06T09:39:55;22.80;53.40
50955;DHT22;36966;48.064;-0.792;2023-08-06T09:42:14;22.80;53.10
50955;DHT22;36966;48.064;-0.792;2023-08-06T09:44:34;22.90;53.10
50955;DHT22;36966;48.064;-0.792;2023-08-06T09:46:54;22.90;53.10
50955;DHT22;36966;48.064;-0.792;2023-08-06T09:49:14;22.80;53.10
50955;DHT22;36966;48.064;-0.792;2023-08-06T09:51:33;22.90;52.90
50955;DHT22;36966;48.064;-0.792;2023-08-06T09:53:53;22.80;53.10
50955;DHT22;36966;48.064;-0.792;2023-08-06T09:56:12;22.80;53.20
50955;DHT22;36966;48.064;-0.792;2023-08-06T09:58:33;22.80;52.90
50955;DHT22;36966;48.064;-0.792;2023-08-06T10:00:52;22.80;53.10
50955;DHT22;36966;48.064;-0.792;2023-08-06T10:03:12;22.90;52.90
50955;DHT22;36966;48.064;-0.792;2023-08-06T10:05:33;23.00;52.70
50955;DHT22;36966;48.064;-0.792;2023-08-06T10:07:53;23.00;52.60
50955;DHT22;36966;48.064;-0.792;2023-08-06T10:10:14;23.00;52.50
50955;DHT22;36966;48.064;-0.792;2023-08-06T10:12:34;23.00;52.30
50955;DHT22;36966;48.064;-0.792;2023-08-06T10:14:55;23.00;52.20
50955;DHT22;36966;48.064;-0.792;2023-08-06T10:17:16;23.00;52.00
50955;DHT22;36966;48.064;-0.792;2023-08-06T10:19:36;23.00;52.00
50955;DHT22;36966;48.064;-0.792;2023-08-06T10:22:14;23.10;51.70
50955;DHT22;36966;48.064;-0.792;2023-08-06T10:24:50;23.10;51.70
50955;DHT22;36966;48.064;-0.792;2023-08-06T10:27:10;23.10;51.70
50955;DHT22;36966;48.064;-0.792;2023-08-06T10:29:35;23.10;51.00
50955;DHT22;36966;48.064;-0.792;2023-08-06T10:32:00;23.20;50.80
50955;DHT22;36966;48.064;-0.792;2023-08-06T10:34:20;23.20;51.00
50955;DHT22;36966;48.064;-0.792;2023-08-06T10:36:39;23.20;49.60
50955;DHT22;36966;48.064;-0.792;2023-08-06T10:38:58;23.20;50.10
50955;DHT22;36966;48.064;-0.792;2023-08-06T10:43:41;23.10;50.70
50955;DHT22;36966;48.064;-0.792;2023-08-06T10:46:03;23.00;51.10
50955;DHT22;36966;48.064;-0.792;2023-08-06T10:48:29;23.00;51.60
50955;DHT22;36966;48.064;-0.792;2023-08-06T10:50:52;23.00;51.80
50955;DHT22;36966;48.064;-0.792;2023-08-06T10:53:11;23.00;51.90
50955;DHT22;36966;48.064;-0.792;2023-08-06T10:55:31;23.00;52.00
50955;DHT22;36966;48.064;-0.792;2023-08-06T10:57:50;23.00;52.00
50955;DHT22;36966;48.064;-0.792;2023-08-06T11:00:10;23.00;52.30
50955;DHT22;36966;48.064;-0.792;2023-08-06T11:02:35;23.00;52.30
50955;DHT22;36966;48.064;-0.792;2023-08-06T11:04:55;23.00;52.50
50955;DHT22;36966;48.064;-0.792;2023-08-06T11:07:14;23.00;52.70
50955;DHT22;36966;48.064;-0.792;2023-08-06T11:09:33;23.00;52.90
50955;DHT22;36966;48.064;-0.792;2023-08-06T11:11:53;23.00;53.00
50955;DHT22;36966;48.064;-0.792;2023-08-06T11:14:15;23.00;53.10
50955;DHT22;36966;48.064;-0.792;2023-08-06T11:16:35;22.90;53.10
50955;DHT22;36966;48.064;-0.792;2023-08-06T11:18:55;22.90;53.20
50955;DHT22;36966;48.064;-0.792;2023-08-06T11:21:18;22.90;53.40
50955;DHT22;36966;48.064;-0.792;2023-08-06T11:23:37;22.90;53.40
50955;DHT22;36966;48.064;-0.792;2023-08-06T11:25:57;22.90;53.40
50955;DHT22;36966;48.064;-0.792;2023-08-06T11:28:18;22.90;53.40
50955;DHT22;36966;48.064;-0.792;2023-08-06T11:30:38;22.90;53.50
50955;DHT22;36966;48.064;-0.792;2023-08-06T11:32:57;22.90;53.40
50955;DHT22;36966;48.064;-0.792;2023-08-06T11:35:17;22.90;53.40
50955;DHT22;36966;48.064;-0.792;2023-08-06T11:37:37;22.90;53.30
50955;DHT22;36966;48.064;-0.792;2023-08-06T11:39:59;23.00;53.50
50955;DHT22;36966;48.064;-0.792;2023-08-06T11:42:19;23.00;53.50
50955;DHT22;36966;48.064;-0.792;2023-08-06T11:44:40;23.00;53.50
50955;DHT22;36966;48.064;-0.792;2023-08-06T11:47:04;23.10;53.30
50955;DHT22;36966;48.064;-0.792;2023-08-06T11:49:46;23.20;53.10
50955;DHT22;36966;48.064;-0.792;2023-08-06T11:52:08;23.20;53.10
50955;DHT22;36966;48.064;-0.792;2023-08-06T11:54:31;23.20;53.00
50955;DHT22;36966;48.064;-0.792;2023-08-06T11:56:52;23.30;52.30
50955;DHT22;36966;48.064;-0.792;2023-08-06T11:59:12;23.30;51.90
50955;DHT22;36966;48.064;-0.792;2023-08-06T12:01:31;23.30;51.50
50955;DHT22;36966;48.064;-0.792;2023-08-06T12:03:50;23.20;51.00
50955;DHT22;36966;48.064;-0.792;2023-08-06T12:06:09;23.20;51.30
50955;DHT22;36966;48.064;-0.792;2023-08-06T12:08:29;23.20;50.80
50955;DHT22;36966;48.064;-0.792;2023-08-06T12:10:48;23.20;50.90
50955;DHT22;36966;48.064;-0.792;2023-08-06T12:13:09;23.20;50.80
50955;DHT22;36966;48.064;-0.792;2023-08-06T12:15:28;23.20;50.70
50955;DHT22;36966;48.064;-0.792;2023-08-06T12:17:48;23.20;50.80
50955;DHT22;36966;48.064;-0.792;2023-08-06T12:20:07;23.10;50.80
50955;DHT22;36966;48.064;-0.792;2023-08-06T12:22:27;23.10;51.10
50955;DHT22;36966;48.064;-0.792;2023-08-06T12:24:46;23.10;51.40
50955;DHT22;36966;48.064;-0.792;2023-08-06T12:27:06;23.20;51.60
50955;DHT22;36966;48.064;-0.792;2023-08-06T12:29:25;23.20;51.80
50955;DHT22;36966;48.064;-0.792;2023-08-06T12:31:44;23.20;51.90
50955;DHT22;36966;48.064;-0.792;2023-08-06T12:34:03;23.30;52.00
50955;DHT22;36966;48.064;-0.792;2023-08-06T12:36:23;23.30;52.00
50955;DHT22;36966;48.064;-0.792;2023-08-06T12:38:42;23.40;52.00
50955;DHT22;36966;48.064;-0.792;2023-08-06T12:41:01;23.40;52.00
50955;DHT22;36966;48.064;-0.792;2023-08-06T12:43:21;23.50;52.00
50955;DHT22;36966;48.064;-0.792;2023-08-06T12:45:41;23.50;52.00
50955;DHT22;36966;48.064;-0.792;2023-08-06T12:48:00;23.40;52.00
50955;DHT22;36966;48.064;-0.792;2023-08-06T12:50:19;23.50;52.10
50955;DHT22;36966;48.064;-0.792;2023-08-06T12:52:39;23.50;52.10
50955;DHT22;36966;48.064;-0.792;2023-08-06T12:54:58;23.50;52.10
50955;DHT22;36966;48.064;-0.792;2023-08-06T12:57:17;23.60;52.20
50955;DHT22;36966;48.064;-0.792;2023-08-06T12:59:36;23.60;52.20
50955;DHT22;36966;48.064;-0.792;2023-08-06T13:01:55;23.70;52.00
50955;DHT22;36966;48.064;-0.792;2023-08-06T13:04:15;23.70;52.00
50955;DHT22;36966;48.064;-0.792;2023-08-06T13:06:34;23.70;52.10
50955;DHT22;36966;48.064;-0.792;2023-08-06T13:08:55;23.70;51.80
50955;DHT22;36966;48.064;-0.792;2023-08-06T13:11:14;23.70;51.90
50955;DHT22;36966;48.064;-0.792;2023-08-06T13:13:33;23.70;52.00
50955;DHT22;36966;48.064;-0.792;2023-08-06T13:15:53;23.70;52.20
50955;DHT22;36966;48.064;-0.792;2023-08-06T13:18:12;23.70;52.10
50955;DHT22;36966;48.064;-0.792;2023-08-06T13:20:31;23.70;51.90
50955;DHT22;36966;48.064;-0.792;2023-08-06T13:22:51;23.70;51.80
50955;DHT22;36966;48.064;-0.792;2023-08-06T13:25:12;23.70;51.90
50955;DHT22;36966;48.064;-0.792;2023-08-06T13:27:33;23.70;52.00
50955;DHT22;36966;48.064;-0.792;2023-08-06T13:29:53;23.70;52.10
50955;DHT22;36966;48.064;-0.792;2023-08-06T13:32:12;23.70;52.00
50955;DHT22;36966;48.064;-0.792;2023-08-06T13:34:31;23.70;51.80
50955;DHT22;36966;48.064;-0.792;2023-08-06T13:36:50;23.70;51.90
50955;DHT22;36966;48.064;-0.792;2023-08-06T13:39:10;23.70;52.00
50955;DHT22;36966;48.064;-0.792;2023-08-06T13:41:29;23.70;52.00
50955;DHT22;36966;48.064;-0.792;2023-08-06T13:43:48;23.70;51.90
50955;DHT22;36966;48.064;-0.792;2023-08-06T13:46:08;23.60;52.00
50955;DHT22;36966;48.064;-0.792;2023-08-06T13:48:28;23.70;52.20
50955;DHT22;36966;48.064;-0.792;2023-08-06T13:50:47;23.70;52.20
50955;DHT22;36966;48.064;-0.792;2023-08-06T13:53:07;23.60;52.40
50955;DHT22;36966;48.064;-0.792;2023-08-06T13:55:26;23.60;52.20
50955;DHT22;36966;48.064;-0.792;2023-08-06T13:57:45;23.60;52.10
50955;DHT22;36966;48.064;-0.792;2023-08-06T14:00:05;23.60;52.10
50955;DHT22;36966;48.064;-0.792;2023-08-06T14:02:24;23.60;52.10
50955;DHT22;36966;48.064;-0.792;2023-08-06T14:04:44;23.60;52.00
50955;DHT22;36966;48.064;-0.792;2023-08-06T14:07:03;23.60;52.00
50955;DHT22;36966;48.064;-0.792;2023-08-06T14:09:23;23.60;51.90
50955;DHT22;36966;48.064;-0.792;2023-08-06T14:11:42;23.60;52.00
50955;DHT22;36966;48.064;-0.792;2023-08-06T14:14:01;23.60;52.00
50955;DHT22;36966;48.064;-0.792;2023-08-06T14:16:21;23.60;52.00
50955;DHT22;36966;48.064;-0.792;2023-08-06T14:18:40;24.40;46.50
50955;DHT22;36966;48.064;-0.792;2023-08-06T14:21:00;25.10;45.60
50955;DHT22;36966;48.064;-0.792;2023-08-06T14:23:19;25.50;45.10
50955;DHT22;36966;48.064;-0.792;2023-08-06T14:25:39;25.80;44.90
50955;DHT22;36966;48.064;-0.792;2023-08-06T14:27:58;26.00;44.90
50955;DHT22;36966;48.064;-0.792;2023-08-06T14:30:17;26.00;44.90
50955;DHT22;36966;48.064;-0.792;2023-08-06T14:32:37;26.00;44.90